Time;durP1;ratioP1;P1;durP2;ratioP2;P2;SDS_P1;SDS_P2;PMS_P1;PMS_P2;Temp;Humidity;BMP_temperature;BMP_pressure;BME280_temperature;BME280_humidity;BME280_pressure;Samples;Min_cycle;Max_cycle;Signal;HPM_P1;HPM_P2
2022/08/06 00:02:10;;;;;;;4.75;3.27;;;;;;;15.99;67.58;95525.45;1724216;83;21062;-66
2022/08/06 00:04:37;;;;;;;3.85;3.10;;;;;;;15.99;68.01;95529.45;1724198;83;21023;-66
2022/08/06 00:07:04;;;;;;;3.52;3.02;;;;;;;15.96;66.73;95526.91;1724220;83;21079;-66
2022/08/06 00:09:31;;;;;;;4.05;3.08;;;;;;;15.94;66.41;95526.11;1724019;83;21090;-66
2022/08/06 00:12:02;;;;;;;3.52;3.08;;;;;;;15.96;67.26;95519.80;1724422;82;21055;-66
2022/08/06 00:14:30;;;;;;;3.47;2.87;;;;;;;15.95;66.85;95522.06;1724550;83;21006;-66
2022/08/06 00:16:57;;;;;;;3.75;3.17;;;;;;;15.90;66.59;95524.05;1724371;83;21509;-66
2022/08/06 00:19:25;;;;;;;4.85;3.62;;;;;;;15.87;66.64;95520.16;1724302;82;21023;-66
2022/08/06 00:21:53;;;;;;;4.03;3.30;;;;;;;15.93;66.16;95509.28;1724529;83;20963;-66
2022/08/06 00:24:21;;;;;;;4.05;3.08;;;;;;;15.96;66.32;95512.28;1724553;82;21358;-66
2022/08/06 00:26:48;;;;;;;4.92;3.15;;;;;;;15.89;65.95;95508.99;1718822;82;21015;-66
2022/08/06 00:29:14;;;;;;;3.37;3.08;;;;;;;15.79;67.21;95515.15;1716607;84;21027;-66
2022/08/06 00:31:41;;;;;;;5.35;3.27;;;;;;;15.76;68.49;95519.27;1716040;83;21031;-66
2022/08/06 00:34:08;;;;;;;3.80;2.85;;;;;;;15.71;68.70;95522.58;1716252;83;21473;-66
2022/08/06 00:36:35;;;;;;;3.02;2.75;;;;;;;15.69;67.91;95515.55;1716597;83;21003;-66
2022/08/06 00:39:05;;;;;;;4.33;2.70;;;;;;;15.67;68.65;95517.41;1716264;83;21023;-66
2022/08/06 00:41:32;;;;;;;3.85;2.80;;;;;;;15.70;67.53;95514.64;1716428;84;21520;-66
2022/08/06 00:44:00;;;;;;;4.95;2.87;;;;;;;15.69;67.50;95516.45;1716034;83;21035;-66
2022/08/06 00:46:27;;;;;;;2.95;2.75;;;;;;;15.76;67.20;95511.76;1716351;83;21091;-66
2022/08/06 00:48:54;;;;;;;3.30;3.00;;;;;;;15.79;67.92;95510.30;1716180;83;21027;-66
2022/08/06 00:51:24;;;;;;;3.22;2.90;;;;;;;15.74;68.01;95509.14;1686130;84;21050;-66
2022/08/06 00:53:52;;;;;;;3.65;2.83;;;;;;;15.74;67.51;95504.30;1716577;83;21015;-66
2022/08/06 00:56:19;;;;;;;4.67;2.80;;;;;;;15.74;67.43;95502.97;1716684;83;21007;-66
2022/08/06 00:58:46;;;;;;;3.60;3.30;;;;;;;15.69;67.26;95503.58;1716245;83;21023;-66
2022/08/06 01:01:12;;;;;;;3.77;3.47;;;;;;;15.74;68.02;95502.50;1716364;84;21038;-66
2022/08/06 01:03:40;;;;;;;4.03;3.30;;;;;;;15.73;68.37;95493.27;1716128;84;21122;-66
2022/08/06 01:06:06;;;;;;;5.30;2.85;;;;;;;15.71;67.99;95498.64;1716587;83;20999;-66
2022/08/06 01:08:33;;;;;;;3.10;2.83;;;;;;;15.72;67.84;95505.71;1716635;83;21023;-66
2022/08/06 01:11:00;;;;;;;3.25;2.95;;;;;;;15.62;68.72;95500.29;1716650;83;21035;-66
2022/08/06 01:13:26;;;;;;;4.00;3.20;;;;;;;15.59;68.54;95503.08;1716251;83;21058;-66
2022/08/06 01:16:35;;;;;;;3.17;2.87;;;;;;;15.61;68.17;95503.03;1716452;83;21011;-66
2022/08/06 01:19:16;;;;;;;5.33;3.12;;;;;;;15.61;68.45;95494.58;1716319;83;21058;-66
2022/08/06 01:22:27;;;;;;;4.12;2.92;;;;;;;15.59;68.97;95503.08;1716410;84;21521;-66
2022/08/06 01:25:32;;;;;;;3.37;3.08;;;;;;;15.56;69.01;95505.39;1715125;84;21012;-66
2022/08/06 01:28:22;;;;;;;3.70;3.25;;;;;;;15.45;69.23;95508.09;1715936;83;21031;-66
2022/08/06 01:30:53;;;;;;;4.25;3.17;;;;;;;15.33;70.12;95506.77;1716361;83;21008;-66
2022/08/06 01:33:27;;;;;;;3.85;3.05;;;;;;;15.29;69.73;95503.81;1715091;84;21537;-66
2022/08/06 01:35:59;;;;;;;4.78;3.17;;;;;;;15.27;70.08;95499.02;1715791;84;21063;-66
2022/08/06 01:38:31;;;;;;;3.83;3.15;;;;;;;15.21;69.68;95496.13;1716439;83;21027;-66
2022/08/06 01:41:03;;;;;;;5.37;3.20;;;;;;;15.24;69.10;95496.01;1716378;83;20995;-66
2022/08/06 01:43:32;;;;;;;3.75;3.40;;;;;;;15.18;70.83;95507.36;1716469;83;21035;-66
2022/08/06 01:46:01;;;;;;;4.08;3.67;;;;;;;15.18;70.22;95502.05;1716402;83;20995;-66
2022/08/06 01:48:30;;;;;;;3.85;3.10;;;;;;;15.13;70.06;95508.39;1716276;84;21027;-66
2022/08/06 01:51:01;;;;;;;4.72;2.80;;;;;;;15.15;70.27;95514.98;1716443;83;21031;-66
2022/08/06 01:53:38;;;;;;;2.95;2.65;;;;;;;15.13;71.12;95512.84;1686268;84;21011;-66
2022/08/06 01:56:08;;;;;;;4.65;3.20;;;;;;;15.10;70.81;95510.31;1716163;83;21007;-66
2022/08/06 01:58:41;;;;;;;3.12;2.85;;;;;;;15.14;70.22;95513.23;1716282;84;21035;-66
2022/08/06 02:01:11;;;;;;;;;;;;;;;15.20;70.45;95506.84;1718779;83;21027;-66
2022/08/06 02:03:44;;;;;;;3.12;2.47;;;;;;;15.23;70.12;95501.41;1716237;83;20395;-66
2022/08/06 02:06:16;;;;;;;3.20;2.90;;;;;;;15.21;70.16;95496.13;1716467;83;21022;-66
2022/08/06 02:08:46;;;;;;;3.17;2.90;;;;;;;15.14;70.75;95502.16;1716257;83;20999;-66
2022/08/06 02:11:13;;;;;;;2.80;2.60;;;;;;;15.13;70.24;95505.73;1716469;83;20968;-66
2022/08/06 02:13:42;;;;;;;3.50;2.55;;;;;;;15.11;70.63;95498.73;1716164;84;21044;-66
2022/08/06 02:16:11;;;;;;;3.47;2.98;;;;;;;15.11;70.77;95508.04;1716253;83;21492;-66
2022/08/06 02:18:42;;;;;;;3.30;3.00;;;;;;;15.08;70.91;95500.19;1716111;84;20979;-66
2022/08/06 02:21:17;;;;;;;2.95;2.72;;;;;;;15.12;71.16;95491.19;1716418;83;21513;-66
2022/08/06 02:23:44;;;;;;;3.30;2.70;;;;;;;15.17;70.35;95491.88;1716258;83;20996;-66
2022/08/06 02:26:14;;;;;;;5.30;2.95;;;;;;;15.24;69.84;95491.16;1718014;83;21090;-66
2022/08/06 02:28:43;;;;;;;2.70;2.50;;;;;;;15.23;69.42;95494.30;1724295;83;21045;-66
2022/08/06 02:31:10;;;;;;;4.87;3.42;;;;;;;15.11;70.95;95502.26;1724274;83;21002;-66
2022/08/06 02:33:37;;;;;;;3.12;2.80;;;;;;;15.01;70.90;95502.20;1724221;83;21110;-66
2022/08/06 02:36:20;;;;;;;3.10;2.80;;;;;;;14.99;70.22;95501.38;1724043;82;21063;-66
2022/08/06 02:39:04;;;;;;;3.50;3.20;;;;;;;15.07;70.21;95503.31;1724662;82;21022;-66
2022/08/06 02:41:59;;;;;;;4.83;3.00;;;;;;;15.15;69.97;95487.94;1720655;83;21515;-66
2022/08/06 02:44:54;;;;;;;3.25;2.70;;;;;;;15.00;71.18;95499.16;1723817;83;21026;-66
2022/08/06 02:47:46;;;;;;;4.20;3.17;;;;;;;14.92;70.52;95494.59;1724783;82;21034;-66
2022/08/06 02:50:16;;;;;;;3.10;2.90;;;;;;;14.92;71.40;95499.91;1724133;83;21064;-66
2022/08/06 02:52:51;;;;;;;3.42;3.12;;;;;;;14.86;72.18;95499.65;1724510;83;21460;-66
2022/08/06 02:55:21;;;;;;;5.17;3.10;;;;;;;14.81;72.10;95495.44;1721646;83;21000;-66
2022/08/06 02:57:59;;;;;;;3.75;3.45;;;;;;;14.76;72.47;95499.58;1724251;83;21099;-66
2022/08/06 03:00:27;;;;;;;3.55;3.20;;;;;;;14.75;71.95;95500.98;1724488;83;21015;-66
2022/08/06 03:02:58;;;;;;;3.20;2.90;;;;;;;14.69;72.46;95501.61;1724397;82;21006;-66
2022/08/06 03:05:27;;;;;;;4.33;2.98;;;;;;;14.63;72.83;95500.48;1724099;82;21023;-66
2022/08/06 03:07:56;;;;;;;3.33;3.02;;;;;;;14.61;73.08;95502.33;1724385;83;21037;-66
2022/08/06 03:10:26;;;;;;;3.55;2.80;;;;;;;14.59;72.85;95504.20;1724391;82;21058;-66
2022/08/06 03:12:55;;;;;;;3.10;2.80;;;;;;;14.56;73.60;95510.92;1724397;82;21494;-66
2022/08/06 03:15:24;;;;;;;3.30;3.00;;;;;;;14.53;74.26;95515.45;1724453;83;21079;-66
2022/08/06 03:17:58;;;;;;;3.50;3.20;;;;;;;14.54;73.33;95515.44;1724518;83;21022;-66
2022/08/06 03:20:23;;;;;;;7.65;3.05;;;;;;;14.60;73.85;95517.86;1723505;83;21050;-66
2022/08/06 03:22:52;;;;;;;3.30;3.00;;;;;;;14.61;73.18;95507.64;1724647;83;21007;-66
2022/08/06 03:25:20;;;;;;;3.25;2.70;;;;;;;14.60;73.26;95511.23;1724266;83;21026;-66
2022/08/06 03:27:50;;;;;;;3.77;3.10;;;;;;;14.60;72.94;95509.90;1724308;83;21038;-66
2022/08/06 03:30:19;;;;;;;3.05;2.75;;;;;;;14.61;73.44;95500.14;1724464;83;21497;-66
2022/08/06 03:32:47;;;;;;;3.77;3.37;;;;;;;14.59;73.75;95505.52;1724468;83;20999;-66
2022/08/06 03:35:16;;;;;;;3.33;3.00;;;;;;;14.63;73.17;95501.81;1724251;83;21050;-66
2022/08/06 03:37:43;;;;;;;4.00;3.20;;;;;;;14.67;73.47;95506.11;1724443;83;21489;-66
2022/08/06 03:40:13;;;;;;;4.85;3.20;;;;;;;14.70;73.82;95507.31;1724122;83;20999;-66
2022/08/06 03:42:40;;;;;;;3.37;3.08;;;;;;;14.82;73.38;95507.34;1724330;82;21046;-66
2022/08/06 03:45:08;;;;;;;3.50;3.02;;;;;;;14.83;72.88;95505.08;1724219;83;21493;-66
2022/08/06 03:47:41;;;;;;;3.30;3.00;;;;;;;14.83;72.46;95501.09;1724599;83;20991;-66
2022/08/06 03:50:15;;;;;;;3.42;3.12;;;;;;;14.76;72.92;95505.36;1723189;83;21095;-66
2022/08/06 03:52:46;;;;;;;4.87;3.20;;;;;;;14.78;73.09;95506.18;1724376;83;21042;-66
2022/08/06 03:55:18;;;;;;;3.87;2.90;;;;;;;14.80;74.13;95509.66;1724500;82;21054;-66
2022/08/06 03:57:48;;;;;;;3.55;3.17;;;;;;;14.89;73.78;95507.53;1724411;83;20983;-66
2022/08/06 04:00:19;;;;;;;3.75;3.15;;;;;;;15.07;73.56;95504.64;1724329;82;21003;-66
2022/08/06 04:02:54;;;;;;;4.35;3.52;;;;;;;15.20;72.99;95503.72;1724322;83;21517;-66
2022/08/06 04:05:26;;;;;;;3.45;3.02;;;;;;;15.31;72.97;95496.19;1724347;83;21009;-66
2022/08/06 04:07:56;;;;;;;3.35;3.05;;;;;;;15.43;72.43;95504.16;1724069;83;21035;-66
2022/08/06 04:10:27;;;;;;;2.90;2.70;;;;;;;15.48;71.97;95509.30;1724552;82;21011;-66
2022/08/06 04:12:54;;;;;;;3.60;3.30;;;;;;;15.47;73.19;95508.44;1724589;83;21027;-66
2022/08/06 04:15:21;;;;;;;3.65;3.27;;;;;;;15.57;72.03;95504.48;1724367;83;21492;-66
2022/08/06 04:17:51;;;;;;;4.10;3.12;;;;;;;15.72;71.37;95505.71;1724629;82;20999;-66
2022/08/06 04:20:21;;;;;;;4.05;3.30;;;;;;;15.77;72.07;95506.83;1724266;83;21019;-66
2022/08/06 04:22:48;;;;;;;6.33;3.90;;;;;;;15.83;71.93;95501.75;1724142;82;21034;-66
2022/08/06 04:25:15;;;;;;;2.98;2.77;;;;;;;15.87;71.88;95503.33;1724603;83;20995;-66
2022/08/06 04:27:45;;;;;;;3.98;3.40;;;;;;;15.90;71.99;95500.54;1727968;82;21082;-66
2022/08/06 04:30:13;;;;;;;6.97;3.58;;;;;;;16.01;71.99;95502.31;1706607;84;21031;-66
2022/08/06 04:32:42;;;;;;;4.62;3.47;;;;;;;16.16;71.63;95512.79;1737759;83;21022;-66
2022/08/06 04:35:10;;;;;;;4.00;3.70;;;;;;;16.27;71.35;95507.01;1690963;84;21022;-66
2022/08/06 04:37:37;;;;;;;4.70;3.30;;;;;;;16.38;71.25;95506.10;1737616;82;21026;-66
2022/08/06 04:40:07;;;;;;;4.15;3.75;;;;;;;16.50;70.90;95508.20;1706747;84;21492;-66
2022/08/06 04:42:34;;;;;;;4.10;3.70;;;;;;;16.64;70.06;95508.48;1737418;83;21038;-66
2022/08/06 04:45:01;;;;;;;3.77;3.47;;;;;;;16.77;69.45;95509.28;1706733;84;21002;-66
2022/08/06 04:47:32;;;;;;;5.97;3.70;;;;;;;16.89;68.97;95509.25;1737629;82;21046;-66
2022/08/06 04:49:59;;;;;;;3.83;3.52;;;;;;;17.02;68.37;95511.28;1706524;84;21456;-66
2022/08/06 04:52:28;;;;;;;3.77;3.35;;;;;;;17.12;67.28;95507.73;1706785;83;21023;-66
2022/08/06 04:54:55;;;;;;;3.90;3.60;;;;;;;17.23;67.42;95504.09;1706903;84;20987;-66
2022/08/06 04:57:23;;;;;;;4.30;3.90;;;;;;;17.34;67.29;95508.95;1709937;83;21756;-66
2022/08/06 04:59:50;;;;;;;4.67;3.62;;;;;;;17.48;67.42;95507.81;1706823;84;21070;-66
2022/08/06 05:02:16;;;;;;;4.35;3.83;;;;;;;17.62;67.29;95511.17;1707039;84;21102;-66
2022/08/06 05:04:44;;;;;;;4.20;3.75;;;;;;;17.77;67.03;95506.05;1737322;82;21507;-66
2022/08/06 05:07:22;;;;;;;6.03;3.77;;;;;;;17.91;66.83;95508.45;1706867;83;21118;-66
2022/08/06 05:09:50;;;;;;;4.00;3.60;;;;;;;18.01;66.49;95502.20;1737318;83;21090;-66
2022/08/06 05:12:33;;;;;;;3.85;3.55;;;;;;;18.15;66.19;95502.87;1706635;83;20987;-66
2022/08/06 05:15:22;;;;;;;4.20;3.80;;;;;;;18.30;65.66;95504.77;1737669;83;21002;-66
2022/08/06 05:18:00;;;;;;;4.85;3.80;;;;;;;18.45;65.37;95508.95;1707028;84;20991;-66
2022/08/06 05:20:32;;;;;;;3.90;3.52;;;;;;;18.62;64.33;95500.91;1737211;83;21034;-66
2022/08/06 05:23:16;;;;;;;6.87;3.77;;;;;;;18.74;63.88;95498.08;1706755;84;21042;-66
2022/08/06 05:25:43;;;;;;;4.03;3.70;;;;;;;18.90;63.74;95503.50;1736994;83;21073;-66
2022/08/06 05:28:10;;;;;;;5.08;3.45;;;;;;;19.18;63.51;95502.92;1706631;84;20999;-66
2022/08/06 05:30:48;;;;;;;5.37;3.80;;;;;;;19.18;63.51;95502.92;1737503;82;21062;-66
2022/08/06 05:33:33;;;;;;;3.87;3.52;;;;;;;19.35;63.08;95497.97;1705250;84;21011;-66
2022/08/06 05:36:01;;;;;;;4.30;3.90;;;;;;;19.51;62.43;95499.35;1706584;84;21018;-66
2022/08/06 05:38:29;;;;;;;4.42;4.00;;;;;;;19.64;62.06;95499.05;1737451;82;21003;-66
2022/08/06 05:40:56;;;;;;;5.03;3.90;;;;;;;19.76;62.06;95498.40;1706722;84;21023;-66
2022/08/06 05:43:23;;;;;;;6.30;3.67;;;;;;;19.94;61.99;95494.30;1706892;84;21062;-66
2022/08/06 05:45:55;;;;;;;5.35;3.90;;;;;;;20.09;61.80;95496.95;1737190;83;21042;-66
2022/08/06 05:48:23;;;;;;;7.47;3.50;;;;;;;20.25;60.49;95493.38;1706829;84;21075;-66
2022/08/06 05:51:07;;;;;;;4.37;3.75;;;;;;;20.38;59.82;95489.50;1706408;84;21031;-66
2022/08/06 05:53:44;;;;;;;4.47;3.90;;;;;;;20.53;59.51;95484.56;1737588;83;21006;-66
2022/08/06 05:56:17;;;;;;;5.58;3.67;;;;;;;20.68;59.13;95490.38;1690541;84;21607;-66
2022/08/06 05:58:51;;;;;;;6.85;3.70;;;;;;;20.83;58.40;95483.23;1706835;84;21018;-66
2022/08/06 06:01:18;;;;;;;4.03;3.70;;;;;;;20.99;57.35;95486.31;1737597;83;21026;-66
2022/08/06 06:03:47;;;;;;;4.80;3.52;;;;;;;21.10;56.88;95479.34;1706822;84;20995;-66
2022/08/06 06:06:14;;;;;;;8.00;3.70;;;;;;;21.26;56.75;95480.58;1706672;84;21433;-66
2022/08/06 06:08:41;;;;;;;4.47;3.40;;;;;;;21.45;56.89;95488.39;1710161;83;21101;-66
2022/08/06 06:11:09;;;;;;;4.20;3.50;;;;;;;21.63;56.86;95480.98;1706901;84;21496;-66
2022/08/06 06:13:39;;;;;;;6.45;3.30;;;;;;;21.81;54.83;95474.89;1737614;83;21047;-66
2022/08/06 06:16:30;;;;;;;4.33;3.58;;;;;;;21.96;55.66;95477.92;1706849;84;21019;-66
2022/08/06 06:19:20;;;;;;;4.40;3.87;;;;;;;22.14;55.37;95470.96;1737679;83;21019;-67
2022/08/06 06:21:58;;;;;;;4.20;3.80;;;;;;;22.33;55.40;95475.53;1622580;88;21086;-66
2022/08/06 06:24:39;;;;;;;5.17;3.90;;;;;;;22.53;55.09;95467.47;1715538;83;21495;-66
2022/08/06 06:27:16;;;;;;;6.17;3.75;;;;;;;22.74;54.77;95475.03;1707029;84;21512;-66
2022/08/06 06:29:53;;;;;;;3.65;3.35;;;;;;;22.92;54.52;95468.38;1694958;84;21019;-66
2022/08/06 06:32:42;;;;;;;4.03;3.60;;;;;;;23.11;54.16;95455.39;1716393;84;21015;-66
2022/08/06 06:35:35;;;;;;;4.53;3.80;;;;;;;23.30;53.83;95460.32;1716347;84;21525;-67
2022/08/06 06:38:11;;;;;;;;;;;;;;;23.52;52.85;95461.00;1719515;83;21063;-66
2022/08/06 06:40:52;;;;;;;3.80;3.50;;;;;;;23.70;51.82;95453.41;1714540;84;20137;-67
2022/08/06 06:43:40;;;;;;;4.37;3.98;;;;;;;23.88;52.12;95459.81;1716485;84;21027;-66
2022/08/06 06:46:26;;;;;;;3.87;3.55;;;;;;;24.10;51.63;95460.44;1716698;83;21015;-66
2022/08/06 06:49:17;;;;;;;3.65;3.35;;;;;;;24.28;50.97;95459.05;1716382;83;21406;-66
2022/08/06 06:51:48;;;;;;;3.75;3.45;;;;;;;24.48;49.20;95456.23;1716347;83;20988;-66
2022/08/06 06:54:26;;;;;;;4.30;3.90;;;;;;;24.67;49.93;95455.70;1716508;84;21027;-67
2022/08/06 06:56:56;;;;;;;5.65;3.65;;;;;;;24.87;49.79;95451.94;1716198;83;21067;-66
2022/08/06 06:59:35;;;;;;;4.37;3.58;;;;;;;25.10;48.75;95448.78;1716487;83;20987;-66
2022/08/06 07:02:04;;;;;;;3.90;3.37;;;;;;;25.30;47.38;95444.55;1716399;83;21051;-66
2022/08/06 07:04:34;;;;;;;5.45;3.33;;;;;;;25.54;47.35;95448.49;1716377;83;21536;-66
2022/08/06 07:07:04;;;;;;;5.95;3.35;;;;;;;25.74;47.50;95450.44;1716356;83;21022;-66
2022/08/06 07:09:33;;;;;;;3.87;3.20;;;;;;;25.93;46.34;95450.31;1716599;83;20975;-66
2022/08/06 07:12:03;;;;;;;3.83;3.45;;;;;;;26.12;45.48;95455.94;1716524;83;21032;-67
2022/08/06 07:14:33;;;;;;;3.83;3.20;;;;;;;26.31;44.78;95449.88;1716561;83;21509;-67
2022/08/06 07:17:02;;;;;;;5.25;3.60;;;;;;;26.50;45.00;95447.81;1686061;84;21572;-67
2022/08/06 07:19:30;;;;;;;4.30;3.62;;;;;;;26.72;45.21;95442.84;1716553;83;20999;-66
2022/08/06 07:21:58;;;;;;;4.75;3.60;;;;;;;26.91;41.44;95446.16;1716480;83;21039;-66
2022/08/06 07:24:30;;;;;;;3.58;3.27;;;;;;;27.10;36.55;95435.47;1716753;83;20960;-66
2022/08/06 07:26:58;;;;;;;3.30;3.00;;;;;;;27.31;38.17;95431.90;1716581;83;21509;-66
2022/08/06 07:29:26;;;;;;;3.50;3.20;;;;;;;27.50;37.43;95430.64;1716246;83;21071;-66
2022/08/06 07:31:55;;;;;;;3.58;2.90;;;;;;;27.68;36.50;95432.21;1716342;83;21059;-66
2022/08/06 07:34:23;;;;;;;3.20;2.98;;;;;;;27.85;36.59;95425.31;1686547;84;21481;-66
2022/08/06 07:36:54;;;;;;;4.50;3.40;;;;;;;28.03;37.32;95434.48;1716404;83;21011;-66
2022/08/06 07:39:31;;;;;;;3.80;2.95;;;;;;;28.18;35.61;95432.74;1716108;83;21031;-66
2022/08/06 07:42:03;;;;;;;3.40;3.10;;;;;;;28.31;34.80;95431.97;1716491;84;21011;-67
2022/08/06 07:44:35;;;;;;;3.50;3.17;;;;;;;28.46;34.06;95433.30;1716530;84;21043;-67
2022/08/06 07:47:04;;;;;;;3.40;3.10;;;;;;;28.62;35.25;95437.30;1716584;83;21038;-67
2022/08/06 07:49:39;;;;;;;3.30;2.95;;;;;;;28.83;35.89;95431.23;1716480;83;21230;-67
2022/08/06 07:52:08;;;;;;;4.75;3.30;;;;;;;29.06;34.88;95432.30;1715734;84;21042;-67
2022/08/06 07:54:36;;;;;;;4.90;3.27;;;;;;;29.18;33.00;95423.46;1716546;83;21513;-67
2022/08/06 07:57:03;;;;;;;3.90;3.20;;;;;;;29.33;34.02;95428.30;1716417;83;21485;-67
2022/08/06 07:59:31;;;;;;;6.25;2.95;;;;;;;29.46;31.50;95432.53;1716327;83;20987;-66
2022/08/06 08:02:00;;;;;;;3.47;2.80;;;;;;;29.50;31.74;95433.45;1716328;84;20995;-66
2022/08/06 08:07:15;;;;;;;3.20;2.90;;;;;;;29.78;33.28;95431.30;1715974;83;21070;-67
2022/08/06 08:09:43;;;;;;;3.33;3.08;;;;;;;29.96;33.33;95427.64;1716624;83;21438;-66
2022/08/06 08:12:15;;;;;;;3.70;3.00;;;;;;;30.07;31.60;95435.25;1716136;84;21090;-66
2022/08/06 08:14:48;;;;;;;5.62;2.87;;;;;;;30.13;31.78;95434.11;1716597;84;20991;-67
2022/08/06 08:17:15;;;;;;;3.02;2.83;;;;;;;30.31;32.55;95434.17;1716523;83;21513;-67
2022/08/06 08:19:42;;;;;;;5.08;3.30;;;;;;;30.43;31.91;95432.09;1716514;83;21027;-67
2022/08/06 08:22:17;;;;;;;4.90;3.27;;;;;;;30.54;31.33;95431.00;1715792;83;21087;-68
2022/08/06 08:24:47;;;;;;;3.55;3.30;;;;;;;30.67;30.47;95437.42;1686281;84;21058;-69
2022/08/06 08:27:14;;;;;;;3.58;3.27;;;;;;;30.71;30.12;95439.68;1716364;83;20980;-68
2022/08/06 08:29:43;;;;;;;3.50;3.20;;;;;;;30.82;29.24;95442.22;1722027;83;21047;-68
2022/08/06 08:32:10;;;;;;;4.00;3.60;;;;;;;31.02;29.65;95438.81;1724425;83;21022;-67
2022/08/06 08:34:36;;;;;;;5.92;3.08;;;;;;;31.18;29.34;95427.68;1724140;83;21484;-77
2022/08/06 08:37:04;;;;;;;8.10;3.08;;;;;;;31.34;29.93;95435.11;1724351;82;20984;-73
2022/08/06 08:39:31;;;;;;;3.58;3.27;;;;;;;31.42;29.56;95435.19;1724341;83;21485;-74
2022/08/06 08:42:20;;;;;;;4.00;3.50;;;;;;;31.60;29.64;95435.12;1724267;83;21524;-71
2022/08/06 08:44:49;;;;;;;5.00;2.75;;;;;;;31.68;28.50;95438.77;1724468;83;21468;-76
2022/08/06 08:47:19;;;;;;;3.77;3.30;;;;;;;31.83;28.59;95428.09;1695903;83;20983;-74
2022/08/06 08:49:53;;;;;;;3.90;3.10;;;;;;;31.95;28.27;95434.64;1724259;82;21489;-75
2022/08/06 08:52:31;;;;;;;3.98;3.10;;;;;;;31.82;27.58;95429.09;1724320;82;20991;-75
2022/08/06 08:55:06;;;;;;;3.45;3.17;;;;;;;31.83;28.39;95440.89;1720985;83;21003;-74
2022/08/06 08:57:33;;;;;;;3.67;3.37;;;;;;;31.46;28.05;95434.70;1724464;82;21038;-74
2022/08/06 09:00:03;;;;;;;4.10;3.30;;;;;;;31.01;28.29;95449.85;1724369;82;20991;-74
2022/08/06 09:02:31;;;;;;;3.22;2.92;;;;;;;30.61;29.03;95449.80;1724067;83;21521;-74
2022/08/06 09:04:59;;;;;;;5.10;3.20;;;;;;;30.63;29.30;95443.70;1724511;83;21002;-74
2022/08/06 09:07:28;;;;;;;3.70;3.40;;;;;;;31.04;29.62;95449.53;1724298;82;21011;-75
2022/08/06 09:09:55;;;;;;;7.60;3.50;;;;;;;31.50;29.59;95438.47;1724228;82;20998;-74
2022/08/06 09:12:22;;;;;;;3.80;3.35;;;;;;;31.83;27.24;95434.92;1724295;82;21034;-74
2022/08/06 09:14:49;;;;;;;4.72;2.95;;;;;;;31.94;28.34;95437.05;1724398;82;21074;-75
2022/08/06 09:17:17;;;;;;;6.72;3.35;;;;;;;31.82;27.89;95433.19;1723954;82;21031;-75
2022/08/06 09:19:44;;;;;;;3.85;3.02;;;;;;;31.83;28.30;95433.56;1724512;83;21047;-75
2022/08/06 09:22:11;;;;;;;4.58;3.42;;;;;;;32.09;28.12;95436.25;1724229;82;21888;-75
2022/08/06 09:24:38;;;;;;;3.40;3.10;;;;;;;32.08;27.40;95432.30;1724189;83;21006;-75
2022/08/06 09:27:17;;;;;;;3.55;3.25;;;;;;;31.62;26.57;95437.18;1724485;83;21015;-72
2022/08/06 09:29:50;;;;;;;4.80;3.27;;;;;;;31.19;27.16;95437.55;1719375;83;21016;-77
2022/08/06 09:32:42;;;;;;;3.72;3.40;;;;;;;30.90;27.93;95445.52;1716242;83;21518;-78
2022/08/06 09:35:25;;;;;;;5.83;3.75;;;;;;;30.99;27.08;95449.15;1716154;84;21027;-77
2022/08/06 09:38:03;;;;;;;4.75;3.50;;;;;;;31.26;28.33;95432.67;1716218;83;21063;-77
2022/08/06 09:40:30;;;;;;;4.92;3.37;;;;;;;31.77;27.84;95438.28;1716476;83;21007;-77
2022/08/06 09:42:57;;;;;;;3.77;3.52;;;;;;;32.21;26.74;95431.86;1716539;83;21473;-77
2022/08/06 09:45:26;;;;;;;3.52;3.00;;;;;;;32.59;25.91;95436.43;1716407;83;21054;-78
2022/08/06 09:48:05;;;;;;;6.00;3.08;;;;;;;32.94;25.03;95436.64;1716724;83;21476;-78
2022/08/06 09:50:42;;;;;;;4.08;3.65;;;;;;;33.03;24.31;95432.89;1712831;84;21019;-78
2022/08/06 09:53:09;;;;;;;3.33;3.02;;;;;;;32.61;25.32;95435.23;1716582;83;21043;-76
2022/08/06 09:55:36;;;;;;;3.58;3.27;;;;;;;32.53;25.79;95436.08;1716683;83;21010;-75
2022/08/06 09:58:04;;;;;;;3.35;3.02;;;;;;;32.70;25.36;95437.45;1716333;84;21035;-74
2022/08/06 10:00:34;;;;;;;3.33;3.02;;;;;;;32.41;25.46;95444.69;1716761;83;21058;-81
2022/08/06 10:03:05;;;;;;;3.70;3.00;;;;;;;32.18;25.43;95445.34;1716572;83;21027;-74
2022/08/06 10:05:33;;;;;;;3.80;3.40;;;;;;;32.49;25.53;95437.42;1716592;83;21043;-75
2022/08/06 10:08:10;;;;;;;4.15;3.42;;;;;;;32.95;25.42;95435.08;1716321;83;21027;-81
2022/08/06 10:10:43;;;;;;;7.75;3.40;;;;;;;33.30;24.54;95437.67;1716563;83;21545;-78
2022/08/06 10:13:24;;;;;;;26.20;8.35;;;;;;;33.68;24.54;95435.24;1716508;83;21035;-81
2022/08/06 10:15:55;;;;;;;11.97;4.75;;;;;;;33.92;23.55;95436.55;1716602;83;21022;-75
2022/08/06 10:18:41;;;;;;;36.17;10.53;;;;;;;33.79;23.33;95444.43;1716548;84;21098;-73
2022/08/06 10:21:12;;;;;;;6.95;4.22;;;;;;;33.60;22.79;95438.33;1716553;84;21046;-72
2022/08/06 10:23:42;;;;;;;31.82;8.18;;;;;;;33.94;23.35;95437.72;1716477;83;21043;-80
2022/08/06 10:26:11;;;;;;;51.23;13.98;;;;;;;34.17;23.53;95436.45;1716406;83;21019;-78
2022/08/06 10:28:41;;;;;;;20.27;5.78;;;;;;;34.39;22.93;95433.44;1716907;83;21023;-76
2022/08/06 10:31:13;;;;;;;14.78;6.25;;;;;;;34.16;23.09;95441.08;1724537;83;21489;-78
2022/08/06 10:33:47;;;;;;;201.47;43.23;;;;;;;33.61;24.16;95437.30;1724529;83;21071;-74
2022/08/06 10:36:15;;;;;;;22.98;8.00;;;;;;;33.20;24.63;95440.58;1724626;83;21062;-75
2022/08/06 10:38:48;;;;;;;10.43;4.60;;;;;;;33.26;24.67;95432.20;1724408;82;21050;-79
2022/08/06 10:41:16;;;;;;;7.78;3.50;;;;;;;33.64;23.85;95428.41;1724365;83;21130;-73
2022/08/06 10:43:43;;;;;;;119.00;29.50;;;;;;;33.97;24.03;95433.25;1695859;83;21568;-75
2022/08/06 10:46:15;;;;;;;35.10;11.75;;;;;;;34.26;23.30;95432.66;1724625;83;20986;-75
2022/08/06 10:48:46;;;;;;;5.80;3.30;;;;;;;34.46;22.56;95433.06;1724476;82;21039;-76
2022/08/06 10:51:15;;;;;;;56.50;17.12;;;;;;;34.35;21.25;95435.70;1724554;83;21010;-78
2022/08/06 10:53:45;;;;;;;29.00;10.13;;;;;;;34.49;21.79;95436.80;1724315;83;21513;-75
2022/08/06 10:56:15;;;;;;;92.90;25.30;;;;;;;34.75;22.40;95434.27;1724309;83;21050;-77
2022/08/06 10:58:43;;;;;;;17.73;6.30;;;;;;;35.02;22.02;95436.98;1724587;83;21015;-82
2022/08/06 11:01:23;;;;;;;40.35;10.55;;;;;;;35.15;20.88;95432.29;1724421;83;20994;-79
2022/08/06 11:04:33;;;;;;;18.12;6.15;;;;;;;35.33;20.69;95434.17;1724294;83;21556;-76
2022/08/06 11:07:14;;;;;;;61.18;16.52;;;;;;;35.39;20.10;95436.19;1724385;83;21099;-73
2022/08/06 11:10:37;;;;;;;11.73;4.97;;;;;;;35.55;20.58;95429.16;1724019;83;21505;-78
2022/08/06 11:13:15;;;;;;;3.25;2.95;;;;;;;35.69;19.66;95420.66;1724316;82;21018;-73
2022/08/06 11:15:43;;;;;;;43.30;11.85;;;;;;;35.86;19.95;95424.08;1724094;83;21097;-70
2022/08/06 11:18:12;;;;;;;4.92;3.17;;;;;;;35.91;19.73;95429.84;1724332;83;21022;-74
2022/08/06 11:20:43;;;;;;;178.72;42.20;;;;;;;35.80;19.98;95429.45;1724407;83;21042;-75
2022/08/06 11:23:19;;;;;;;19.30;7.00;;;;;;;35.42;20.59;95429.48;1724449;83;21058;-79
2022/08/06 11:25:50;;;;;;;4.87;3.25;;;;;;;35.49;20.88;95421.69;1724528;82;21033;-81
2022/08/06 11:28:36;;;;;;;11.83;5.47;;;;;;;35.78;20.86;95414.53;1724634;82;21477;-78
2022/08/06 11:31:06;;;;;;;8.23;4.10;;;;;;;35.94;20.45;95414.36;1724423;83;21520;-73
2022/08/06 11:33:38;;;;;;;5.85;2.70;;;;;;;36.09;19.62;95421.25;1724357;82;21023;-73
2022/08/06 11:36:10;;;;;;;26.57;9.45;;;;;;;36.12;19.26;95412.63;1724497;83;21015;-74
2022/08/06 11:38:46;;;;;;;;;;;;;;;36.22;19.90;95414.23;1723605;83;21046;-72
2022/08/06 11:41:22;;;;;;;113.77;32.90;;;;;;;36.24;19.86;95420.36;1724593;83;20153;-77
2022/08/06 11:43:56;;;;;;;43.65;13.15;;;;;;;36.27;20.17;95414.50;1724280;83;21050;-76
2022/08/06 11:46:39;;;;;;;13.38;6.08;;;;;;;36.45;20.40;95412.71;1721358;83;21074;-72
2022/08/06 11:49:24;;;;;;;5.72;3.77;;;;;;;36.68;20.18;95416.70;1724545;83;21098;-75
2022/08/06 11:51:56;;;;;;;19.90;8.08;;;;;;;36.84;20.06;95408.19;1724346;82;20998;-73
2022/08/06 11:54:37;;;;;;;24.95;8.90;;;;;;;36.94;19.60;95408.70;1724153;83;21481;-75
2022/08/06 11:57:12;;;;;;;15.78;5.50;;;;;;;36.99;18.82;95410.88;1696180;83;21078;-72
2022/08/06 11:59:56;;;;;;;15.38;5.85;;;;;;;37.46;18.70;95405.29;1724495;83;21024;-75